PWSweather.com
Personal Weather Stations
Station Observations
KPAEXPOR2
Wellington Estates, Export, PA 15632

Wellington EstatesExport, PA 15632

Lat: 40.446, Lon: -79.592

Elevation: 1286

Station Type: PWS1000-TD

http://www.westmorelandweather.com

Latest ConditionsUpdated 10:30:03 AM EDT Thursday, Jul 24, 2014
Currently Today's Max Today's Min Today's Average
Temperature 70.7°F21.5°C 70.7°F21.5°C 59.7°F15.4°C 63.5°F17.5°C
Dew Point 56.6°F13.7°C 61.2°F16.2°C 56.6°F13.7°C 59.7°F15.4°C
Winds 4.5 mph SE7.2 kmh SE 4.5 mph SE7.2 kmh SE - 2.1 mph 3.4 kmh
Wind Gusts 7.6 mph12.2 kmh 9.2 mph14.8 kmh - -
Humidity 61% 95% 61% 88%
Pressure 30.03 in1016.9 mb 30.03 in1016.9 mb 29.98 in1015.2 mb -
Hour Temp Dew Point Humidity Winds Wind Gusts Pressure Precip Precip Rate Daily Precip Total
10:30 AM 70.7°F21.5°C 56.6°F13.7°C 61% 4.5 mph SE7.2 kmh SE 7.6 mph12.2 kmh 30.03 in1016.9 mb 0.00 in0.0 mm 0.00 in/hr0.0 mm/hr 0.00 in0.0 mm
10:15 AM 70.1°F21.2°C 59.5°F15.3°C 69% 4.1 mph E6.6 kmh E 9.2 mph14.8 kmh 30.02 in1016.6 mb 0.00 in0.0 mm 0.00 in/hr0.0 mm/hr 0.00 in0.0 mm
10:00 AM 69.2°F20.7°C 59.5°F15.3°C 71% 3.8 mph E6.1 kmh E 5.4 mph8.7 kmh 30.02 in1016.6 mb 0.00 in0.0 mm 0.00 in/hr0.0 mm/hr 0.00 in0.0 mm
09:45 AM 68.3°F20.2°C 59.8°F15.4°C 74% 4.3 mph E6.9 kmh E 6.0 mph9.7 kmh 30.02 in1016.6 mb 0.00 in0.0 mm 0.00 in/hr0.0 mm/hr 0.00 in0.0 mm
09:30 AM 67.8°F19.9°C 59.6°F15.3°C 75% 2.5 mph NNW4.0 kmh NNW 3.8 mph6.1 kmh 30.02 in1016.6 mb 0.00 in0.0 mm 0.00 in/hr0.0 mm/hr 0.00 in0.0 mm
09:15 AM 67.4°F19.7°C 60.4°F15.8°C 78% 3.6 mph NE5.8 kmh NE 4.5 mph7.2 kmh 30.03 in1016.9 mb 0.00 in0.0 mm 0.00 in/hr0.0 mm/hr 0.00 in0.0 mm
09:00 AM 66.5°F19.2°C 60.2°F15.7°C 80% 3.8 mph E6.1 kmh E 7.6 mph12.2 kmh 30.02 in1016.6 mb 0.00 in0.0 mm 0.00 in/hr0.0 mm/hr 0.00 in0.0 mm
08:45 AM 64.9°F18.3°C 60.3°F15.7°C 85% 3.3 mph E5.3 kmh E 5.4 mph8.7 kmh 30.02 in1016.6 mb 0.00 in0.0 mm 0.00 in/hr0.0 mm/hr 0.00 in0.0 mm
08:30 AM 63.7°F17.6°C 59.7°F15.4°C 87% 3.2 mph E5.1 kmh E 4.5 mph7.2 kmh 30.02 in1016.6 mb 0.00 in0.0 mm 0.00 in/hr0.0 mm/hr 0.00 in0.0 mm
08:15 AM 62.8°F17.1°C 59.8°F15.4°C 90% 3.2 mph ENE5.1 kmh ENE 5.4 mph8.7 kmh 30.02 in1016.6 mb 0.00 in0.0 mm 0.00 in/hr0.0 mm/hr 0.00 in0.0 mm
08:00 AM 61.5°F16.4°C 59.5°F15.3°C 93% 2.5 mph E4.0 kmh E 4.5 mph7.2 kmh 30.01 in1016.3 mb 0.00 in0.0 mm 0.00 in/hr0.0 mm/hr 0.00 in0.0 mm
07:45 AM 60.8°F16.0°C 59.1°F15.1°C 94% 2.1 mph E3.4 kmh E 3.8 mph6.1 kmh 30.02 in1016.6 mb 0.00 in0.0 mm 0.00 in/hr0.0 mm/hr 0.00 in0.0 mm
07:30 AM 60.2°F15.7°C 58.8°F14.9°C 95% 1.3 mph SE2.1 kmh SE 2.2 mph3.5 kmh 30.01 in1016.3 mb 0.00 in0.0 mm 0.00 in/hr0.0 mm/hr 0.00 in0.0 mm
07:15 AM 59.9°F15.5°C 58.5°F14.7°C 95% 0.6 mph N1.0 kmh N 1.6 mph2.6 kmh 30.00 in1015.9 mb 0.00 in0.0 mm 0.00 in/hr0.0 mm/hr 0.00 in0.0 mm
07:00 AM 59.7°F15.4°C 58.0°F14.4°C 94% 1.9 mph S3.1 kmh S 3.1 mph5.0 kmh 30.00 in1015.9 mb 0.00 in0.0 mm 0.00 in/hr0.0 mm/hr 0.00 in0.0 mm
06:45 AM 60.2°F15.7°C 58.2°F14.6°C 93% 1.0 mph NW1.6 kmh NW 1.6 mph2.6 kmh 30.00 in1015.9 mb 0.00 in0.0 mm 0.00 in/hr0.0 mm/hr 0.00 in0.0 mm
06:30 AM 60.8°F16.0°C 58.8°F14.9°C 93% 0.7 mph NNE1.1 kmh NNE 1.6 mph2.6 kmh 30.00 in1015.9 mb 0.00 in0.0 mm 0.00 in/hr0.0 mm/hr 0.00 in0.0 mm
06:15 AM 61.0°F16.1°C 58.9°F14.9°C 93% 1.5 mph ESE2.4 kmh ESE 2.2 mph3.5 kmh 30.00 in1015.9 mb 0.00 in0.0 mm 0.00 in/hr0.0 mm/hr 0.00 in0.0 mm
06:00 AM 61.3°F16.3°C 59.3°F15.2°C 93% 1.3 mph E2.1 kmh E 2.2 mph3.5 kmh 30.00 in1015.9 mb 0.00 in0.0 mm 0.00 in/hr0.0 mm/hr 0.00 in0.0 mm
05:45 AM 61.1°F16.2°C 59.1°F15.1°C 93% 2.1 mph ESE3.4 kmh ESE 2.2 mph3.5 kmh 30.00 in1015.9 mb 0.00 in0.0 mm 0.00 in/hr0.0 mm/hr 0.00 in0.0 mm
05:30 AM 61.1°F16.2°C 59.1°F15.1°C 93% 2.0 mph SE3.2 kmh SE 3.8 mph6.1 kmh 30.00 in1015.9 mb 0.00 in0.0 mm 0.00 in/hr0.0 mm/hr 0.00 in0.0 mm
05:15 AM 61.3°F16.3°C 59.6°F15.3°C 94% 2.1 mph SSE3.4 kmh SSE 3.1 mph5.0 kmh 30.00 in1015.9 mb 0.00 in0.0 mm 0.00 in/hr0.0 mm/hr 0.00 in0.0 mm
05:00 AM 61.3°F16.3°C 59.6°F15.3°C 94% 1.7 mph S2.7 kmh S 3.8 mph6.1 kmh 30.00 in1015.9 mb 0.00 in0.0 mm 0.00 in/hr0.0 mm/hr 0.00 in0.0 mm
04:45 AM 61.5°F16.4°C 59.5°F15.3°C 93% 1.9 mph S3.1 kmh S 2.2 mph3.5 kmh 29.99 in1015.6 mb 0.00 in0.0 mm 0.00 in/hr0.0 mm/hr 0.00 in0.0 mm
04:30 AM 61.9°F16.6°C 59.5°F15.3°C 92% 1.2 mph SE1.9 kmh SE 2.2 mph3.5 kmh 29.99 in1015.6 mb 0.00 in0.0 mm 0.00 in/hr0.0 mm/hr 0.00 in0.0 mm
04:15 AM 62.0°F16.7°C 59.7°F15.4°C 92% 0.6 mph NW1.0 kmh NW 1.6 mph2.6 kmh 29.98 in1015.2 mb 0.00 in0.0 mm 0.00 in/hr0.0 mm/hr 0.00 in0.0 mm
04:00 AM 62.4°F16.9°C 59.8°F15.4°C 91% 0.8 mph N1.3 kmh N 2.2 mph3.5 kmh 29.98 in1015.2 mb 0.00 in0.0 mm 0.00 in/hr0.0 mm/hr 0.00 in0.0 mm
03:45 AM 62.8°F17.1°C 60.1°F15.6°C 91% 0.8 mph NW1.3 kmh NW 2.2 mph3.5 kmh 29.99 in1015.6 mb 0.00 in0.0 mm 0.00 in/hr0.0 mm/hr 0.00 in0.0 mm
03:30 AM 62.9°F17.2°C 60.0°F15.6°C 90% 2.0 mph S3.2 kmh S 3.1 mph5.0 kmh 30.00 in1015.9 mb 0.00 in0.0 mm 0.00 in/hr0.0 mm/hr 0.00 in0.0 mm
03:15 AM 63.1°F17.3°C 60.2°F15.7°C 90% 0.9 mph NW1.4 kmh NW 2.2 mph3.5 kmh 30.00 in1015.9 mb 0.00 in0.0 mm 0.00 in/hr0.0 mm/hr 0.00 in0.0 mm
03:00 AM 63.3°F17.4°C 60.3°F15.7°C 90% 1.5 mph NNW2.4 kmh NNW 3.1 mph5.0 kmh 30.00 in1015.9 mb 0.00 in0.0 mm 0.00 in/hr0.0 mm/hr 0.00 in0.0 mm
02:45 AM 63.1°F17.3°C 60.2°F15.7°C 90% 1.6 mph S2.6 kmh S 3.1 mph5.0 kmh 30.00 in1015.9 mb 0.00 in0.0 mm 0.00 in/hr0.0 mm/hr 0.00 in0.0 mm
02:30 AM 63.1°F17.3°C 60.2°F15.7°C 90% 2.2 mph S3.5 kmh S 3.1 mph5.0 kmh 30.00 in1015.9 mb 0.00 in0.0 mm 0.00 in/hr0.0 mm/hr 0.00 in0.0 mm
02:15 AM 63.1°F17.3°C 60.2°F15.7°C 90% 1.8 mph S2.9 kmh S 3.1 mph5.0 kmh 30.00 in1015.9 mb 0.00 in0.0 mm 0.00 in/hr0.0 mm/hr 0.00 in0.0 mm
02:00 AM 63.3°F17.4°C 60.3°F15.7°C 90% 2.3 mph SSE3.7 kmh SSE 3.8 mph6.1 kmh 30.00 in1015.9 mb 0.00 in0.0 mm 0.00 in/hr0.0 mm/hr 0.00 in0.0 mm
01:45 AM 63.5°F17.5°C 60.5°F15.8°C 90% 1.8 mph S2.9 kmh S 3.1 mph5.0 kmh 30.00 in1015.9 mb 0.00 in0.0 mm 0.00 in/hr0.0 mm/hr 0.00 in0.0 mm
01:30 AM 63.8°F17.7°C 60.6°F15.9°C 89% 2.7 mph S4.3 kmh S 3.8 mph6.1 kmh 30.01 in1016.3 mb 0.00 in0.0 mm 0.00 in/hr0.0 mm/hr 0.00 in0.0 mm
01:15 AM 64.2°F17.9°C 60.9°F16.1°C 89% 1.8 mph S2.9 kmh S 2.2 mph3.5 kmh 30.00 in1015.9 mb 0.00 in0.0 mm 0.00 in/hr0.0 mm/hr 0.00 in0.0 mm
01:00 AM 64.4°F18.0°C 60.8°F16.0°C 88% 1.8 mph S2.9 kmh S 3.1 mph5.0 kmh 30.00 in1015.9 mb 0.00 in0.0 mm 0.00 in/hr0.0 mm/hr 0.00 in0.0 mm
12:45 AM 64.6°F18.1°C 60.9°F16.1°C 88% 1.5 mph S2.4 kmh S 2.2 mph3.5 kmh 30.00 in1015.9 mb 0.00 in0.0 mm 0.00 in/hr0.0 mm/hr 0.00 in0.0 mm
12:30 AM 64.6°F18.1°C 60.9°F16.1°C 88% 3.2 mph SSE5.1 kmh SSE 5.4 mph8.7 kmh 30.00 in1015.9 mb 0.00 in0.0 mm 0.00 in/hr0.0 mm/hr 0.00 in0.0 mm
12:15 AM 64.9°F18.3°C 61.0°F16.1°C 87% 2.1 mph SW3.4 kmh SW 3.1 mph5.0 kmh 30.01 in1016.3 mb 0.00 in0.0 mm 0.00 in/hr0.0 mm/hr 0.00 in0.0 mm
12:00 AM 65.1°F18.4°C 61.2°F16.2°C 87% 2.0 mph S3.2 kmh S 3.1 mph5.0 kmh 30.00 in1015.9 mb 0.00 in0.0 mm 0.00 in/hr0.0 mm/hr 0.00 in0.0 mm